createdAt,value
2017-10-04T00:00:24.497Z,1.00
2017-10-04T00:02:52.090Z,1.03
2017-10-04T00:05:19.938Z,0.90
2017-10-04T00:07:47.369Z,1.27
2017-10-04T00:10:14.810Z,1.02
2017-10-04T00:12:42.816Z,1.60
2017-10-04T00:15:10.368Z,1.30
2017-10-04T00:17:37.822Z,0.93
2017-10-04T00:20:05.580Z,0.90
2017-10-04T00:22:33.107Z,1.63
2017-10-04T00:25:00.514Z,1.47
2017-10-04T00:27:27.955Z,1.10
2017-10-04T00:29:55.365Z,1.10
2017-10-04T00:32:22.785Z,1.00
2017-10-04T00:34:50.233Z,1.00
2017-10-04T00:37:17.709Z,1.20
2017-10-04T00:39:45.128Z,1.77
2017-10-04T00:42:12.587Z,0.80
2017-10-04T00:44:39.999Z,1.40
2017-10-04T00:47:08.052Z,1.40
2017-10-04T00:49:36.100Z,1.57
2017-10-04T00:52:03.507Z,0.80
2017-10-04T00:54:30.928Z,1.20
2017-10-04T00:56:58.783Z,1.10
2017-10-04T00:59:26.188Z,0.80
2017-10-04T01:01:53.595Z,0.80
2017-10-04T01:04:21.034Z,2.33
2017-10-04T01:06:48.452Z,1.30
2017-10-04T01:09:15.860Z,1.30
2017-10-04T01:11:43.499Z,2.13
2017-10-04T01:14:10.922Z,1.15
2017-10-04T01:16:38.333Z,1.00
2017-10-04T01:19:06.238Z,0.90
2017-10-04T01:21:33.653Z,2.08
2017-10-04T01:24:01.074Z,1.05
2017-10-04T01:26:28.531Z,0.80
2017-10-04T01:28:55.990Z,0.87
2017-10-04T01:31:23.537Z,1.63
2017-10-04T01:33:51.224Z,0.90
2017-10-04T01:36:18.625Z,2.08
2017-10-04T01:38:46.031Z,0.93
2017-10-04T01:41:13.689Z,1.17
2017-10-04T01:43:41.091Z,0.83
2017-10-04T01:46:08.508Z,1.57
2017-10-04T01:48:36.065Z,1.10
2017-10-04T01:51:03.483Z,1.27
2017-10-04T01:53:30.904Z,0.90
2017-10-04T01:55:58.392Z,1.93
2017-10-04T01:58:25.838Z,1.00
2017-10-04T02:00:53.264Z,1.90
2017-10-04T02:03:21.129Z,2.17
2017-10-04T02:05:48.536Z,0.80
2017-10-04T02:08:15.937Z,1.10
2017-10-04T02:10:43.407Z,1.60
2017-10-04T02:13:10.837Z,1.47
2017-10-04T02:15:38.401Z,1.00
2017-10-04T02:18:06.795Z,1.20
2017-10-04T02:20:34.209Z,0.97
2017-10-04T02:23:01.625Z,0.83
2017-10-04T02:25:29.457Z,0.80
2017-10-04T02:27:56.882Z,1.60
2017-10-04T02:30:24.298Z,1.10
2017-10-04T02:32:52.144Z,0.70
2017-10-04T02:35:19.546Z,0.80
2017-10-04T02:37:46.969Z,0.98
2017-10-04T02:40:14.849Z,1.67
2017-10-04T02:42:42.351Z,1.47
2017-10-04T02:45:09.782Z,1.90
2017-10-04T02:47:37.232Z,1.03
2017-10-04T02:50:05.406Z,1.08
2017-10-04T02:52:32.813Z,0.90
2017-10-04T02:55:00.270Z,0.80
2017-10-04T02:57:27.897Z,0.80
2017-10-04T02:59:55.351Z,0.80
2017-10-04T03:02:22.785Z,1.00
2017-10-04T03:04:50.841Z,0.80
2017-10-04T03:07:18.283Z,1.23
2017-10-04T03:09:45.886Z,0.73
2017-10-04T03:12:13.315Z,0.90
2017-10-04T03:14:40.822Z,1.40
2017-10-04T03:17:08.278Z,1.03
2017-10-04T03:19:35.682Z,1.37
2017-10-04T03:22:03.154Z,0.70
2017-10-04T03:24:30.738Z,0.90
2017-10-04T03:26:58.159Z,0.70
2017-10-04T03:29:25.567Z,1.47
2017-10-04T03:31:53.350Z,1.63
2017-10-04T03:34:20.793Z,1.30
2017-10-04T03:36:48.200Z,0.70
2017-10-04T03:39:15.825Z,1.40
2017-10-04T03:41:43.249Z,0.90
2017-10-04T03:44:10.654Z,0.80
2017-10-04T03:46:38.120Z,0.97
2017-10-04T03:49:05.558Z,1.00
2017-10-04T03:51:32.970Z,0.70
2017-10-04T03:54:00.558Z,0.80
2017-10-04T03:56:27.979Z,1.07
2017-10-04T03:58:55.466Z,1.00
2017-10-04T04:01:23.139Z,0.80
2017-10-04T04:03:50.707Z,1.30
2017-10-04T04:06:18.138Z,0.80
2017-10-04T04:08:45.578Z,0.80
2017-10-04T04:11:13.044Z,0.90
2017-10-04T04:13:40.455Z,1.10
2017-10-04T04:16:07.930Z,0.80
2017-10-04T04:18:35.341Z,1.65
2017-10-04T04:21:02.807Z,0.80
2017-10-04T04:23:30.554Z,0.87
2017-10-04T04:25:57.972Z,1.13
2017-10-04T04:28:25.387Z,0.93
2017-10-04T04:30:52.868Z,0.73
2017-10-04T04:33:20.382Z,0.90
2017-10-04T04:35:47.873Z,0.87
2017-10-04T04:38:27.110Z,0.80
2017-10-04T04:40:54.528Z,0.70
2017-10-04T04:43:21.940Z,0.83
2017-10-04T04:45:49.387Z,1.17
2017-10-04T04:48:16.801Z,0.70
2017-10-04T04:50:44.222Z,0.93
2017-10-04T04:53:12.134Z,4.80
2017-10-04T04:55:39.611Z,1.27
2017-10-04T04:58:07.022Z,0.80
2017-10-04T05:00:34.792Z,0.80
2017-10-04T05:03:02.195Z,0.80
2017-10-04T05:05:29.607Z,0.70
2017-10-04T05:07:57.041Z,0.97
2017-10-04T05:10:24.461Z,0.70
2017-10-04T05:12:52.019Z,1.10
2017-10-04T05:15:19.499Z,0.80
2017-10-04T05:17:46.908Z,1.20
2017-10-04T05:20:14.320Z,2.37
2017-10-04T05:22:42.216Z,0.73
2017-10-04T05:25:09.674Z,0.90
2017-10-04T05:27:37.094Z,0.80
2017-10-04T05:30:04.696Z,0.93
2017-10-04T05:32:32.122Z,0.80
2017-10-04T05:34:59.536Z,1.13
2017-10-04T05:37:26.989Z,0.70
2017-10-04T05:39:54.396Z,2.10
2017-10-04T05:42:21.809Z,1.77
2017-10-04T05:44:49.264Z,0.80
2017-10-04T05:47:16.679Z,1.73
2017-10-04T05:49:44.121Z,0.90
2017-10-04T05:52:11.896Z,0.77
2017-10-04T05:54:39.310Z,1.77
2017-10-04T05:57:06.726Z,0.90
2017-10-04T05:59:34.213Z,0.70
2017-10-04T06:02:01.621Z,0.70
2017-10-04T06:04:29.026Z,0.87
2017-10-04T06:06:56.502Z,2.73
2017-10-04T06:09:23.905Z,3.47
2017-10-04T06:11:51.319Z,1.17
2017-10-04T06:14:19.263Z,2.05
2017-10-04T06:16:46.675Z,1.97
2017-10-04T06:19:14.099Z,0.90
2017-10-04T06:21:41.561Z,1.00
2017-10-04T06:24:08.964Z,1.10
2017-10-04T06:26:36.390Z,0.77
2017-10-04T06:29:03.915Z,1.40
2017-10-04T06:31:31.331Z,1.00
2017-10-04T06:33:58.745Z,0.90
2017-10-04T06:36:26.438Z,0.80
2017-10-04T06:38:53.861Z,1.00
2017-10-04T06:41:21.406Z,1.93
2017-10-04T06:43:48.897Z,2.63
2017-10-04T06:46:16.311Z,1.83
2017-10-04T06:48:43.793Z,1.17
2017-10-04T06:51:11.267Z,1.80
2017-10-04T06:53:38.683Z,2.10
2017-10-04T06:56:06.109Z,1.20
2017-10-04T06:58:33.561Z,1.43
2017-10-04T07:01:00.983Z,1.80
2017-10-04T07:03:33.327Z,1.20
2017-10-04T07:06:00.799Z,1.30
2017-10-04T07:08:28.215Z,1.67
2017-10-04T07:10:55.642Z,1.20
2017-10-04T07:13:23.228Z,1.20
2017-10-04T07:15:50.680Z,1.30
2017-10-04T07:18:18.196Z,1.40
2017-10-04T07:20:45.691Z,1.50
2017-10-04T07:23:13.178Z,1.70
2017-10-04T07:25:40.682Z,1.53
2017-10-04T07:28:08.111Z,1.50
2017-10-04T07:30:36.022Z,1.47
2017-10-04T07:33:03.490Z,1.33
2017-10-04T07:35:30.954Z,1.33
2017-10-04T07:37:58.464Z,1.60
2017-10-04T07:40:25.926Z,1.40
2017-10-04T07:42:53.399Z,1.40
2017-10-04T07:45:20.855Z,7.90
2017-10-04T07:47:48.315Z,1.20
2017-10-04T07:50:15.977Z,2.20
2017-10-04T07:52:43.399Z,1.40
2017-10-04T07:55:10.821Z,1.40
2017-10-04T07:57:38.385Z,1.48
2017-10-04T08:00:05.823Z,2.23
2017-10-04T08:02:33.409Z,1.57
2017-10-04T08:05:01.487Z,1.60
2017-10-04T08:07:28.935Z,3.03
2017-10-04T08:09:56.361Z,1.60
2017-10-04T08:12:23.828Z,1.57
2017-10-04T08:14:51.243Z,2.07
2017-10-04T08:17:18.666Z,3.73
2017-10-04T08:19:46.242Z,5.10
2017-10-04T08:22:13.678Z,2.60
2017-10-04T08:24:44.923Z,1.70
2017-10-04T08:27:12.447Z,1.80
2017-10-04T08:29:39.871Z,1.77
2017-10-04T08:32:07.284Z,2.17
2017-10-04T08:34:35.097Z,2.33
2017-10-04T08:37:02.502Z,1.53
2017-10-04T08:39:29.924Z,1.95
2017-10-04T08:41:57.374Z,2.67
2017-10-04T08:44:24.815Z,1.47
2017-10-04T08:46:54.213Z,2.83
2017-10-04T08:49:21.661Z,3.30
2017-10-04T08:51:49.160Z,7.23
2017-10-04T08:54:16.579Z,12.00
2017-10-04T08:56:44.077Z,8.40
2017-10-04T08:59:11.498Z,7.60
2017-10-04T09:01:38.910Z,6.67
2017-10-04T09:04:06.671Z,5.50
2017-10-04T09:06:34.094Z,5.70
2017-10-04T09:09:01.528Z,5.07
2017-10-04T09:11:28.984Z,5.53
2017-10-04T09:13:56.395Z,5.50
2017-10-04T09:16:23.817Z,4.13
2017-10-04T09:18:51.684Z,4.17
2017-10-04T09:21:19.098Z,11.70
2017-10-04T09:23:46.516Z,10.43
2017-10-04T09:26:14.102Z,3.70
2017-10-04T09:28:41.553Z,7.30
2017-10-04T09:31:08.974Z,3.90
2017-10-04T09:33:36.614Z,4.10
2017-10-04T09:36:05.032Z,4.65
2017-10-04T09:38:32.531Z,4.30
2017-10-04T09:40:59.959Z,5.87
2017-10-04T09:43:27.397Z,6.73
2017-10-04T09:45:54.807Z,3.27
2017-10-04T09:48:22.336Z,4.27
2017-10-04T09:50:49.849Z,10.10
2017-10-04T09:53:17.294Z,24.87
2017-10-04T09:55:45.121Z,59.65
2017-10-04T09:58:12.725Z,26.17
2017-10-04T10:00:40.152Z,31.03
2017-10-04T10:03:07.994Z,22.77
2017-10-04T10:05:35.429Z,23.30
2017-10-04T10:08:02.951Z,24.13
2017-10-04T10:10:30.398Z,22.80
2017-10-04T10:12:57.817Z,16.60
2017-10-04T10:15:25.262Z,20.13
2017-10-04T10:17:53.105Z,18.23
2017-10-04T10:20:20.510Z,17.27
2017-10-04T10:22:48.885Z,16.43
2017-10-04T10:25:16.349Z,18.83
2017-10-04T10:27:43.801Z,17.97
2017-10-04T10:30:11.225Z,13.77
2017-10-04T10:32:38.687Z,15.97
2017-10-04T10:35:06.115Z,10.73
2017-10-04T10:37:33.535Z,10.97
2017-10-04T10:40:01.155Z,9.90
2017-10-04T10:42:28.679Z,10.50
2017-10-04T10:44:56.099Z,7.75
2017-10-04T10:47:23.654Z,14.23
2017-10-04T10:49:51.062Z,7.80
2017-10-04T10:52:18.478Z,9.57
2017-10-04T10:54:46.277Z,15.43
2017-10-04T10:57:13.700Z,11.20
2017-10-04T10:59:41.106Z,9.23
2017-10-04T11:02:08.580Z,12.63
2017-10-04T11:04:35.990Z,11.93
2017-10-04T11:07:07.311Z,10.00
2017-10-04T11:09:34.850Z,8.80
2017-10-04T11:12:02.267Z,8.77
2017-10-04T11:14:29.696Z,10.47
2017-10-04T11:16:57.166Z,7.90
2017-10-04T11:19:24.578Z,8.00
2017-10-04T11:21:52.014Z,10.23
2017-10-04T11:24:19.490Z,12.43
2017-10-04T11:26:46.909Z,16.07
2017-10-04T11:29:14.369Z,10.17
2017-10-04T11:31:41.838Z,10.57
2017-10-04T11:34:09.499Z,11.67
2017-10-04T11:36:36.921Z,11.83
2017-10-04T11:39:04.475Z,9.73
2017-10-04T11:41:32.830Z,7.93
2017-10-04T11:44:00.245Z,10.80
2017-10-04T11:46:27.999Z,6.53
2017-10-04T11:48:55.521Z,10.47
2017-10-04T11:51:22.995Z,13.53
2017-10-04T11:53:50.562Z,12.63
2017-10-04T11:56:17.992Z,8.80
2017-10-04T11:58:45.421Z,13.70
2017-10-04T12:01:12.868Z,9.17
2017-10-04T12:03:40.284Z,6.90
2017-10-04T12:06:07.767Z,13.00
2017-10-04T12:08:35.427Z,8.43
2017-10-04T12:11:02.886Z,7.67
2017-10-04T12:13:30.320Z,9.77
2017-10-04T12:15:57.870Z,5.90
2017-10-04T12:18:25.815Z,7.40
2017-10-04T12:20:53.211Z,7.63
2017-10-04T12:23:20.660Z,6.63
2017-10-04T12:25:48.617Z,7.87
2017-10-04T12:28:16.044Z,6.68
2017-10-04T12:30:43.518Z,9.38
2017-10-04T12:33:11.084Z,6.47
2017-10-04T12:35:38.523Z,8.33
2017-10-04T12:38:05.986Z,6.50
2017-10-04T12:40:33.407Z,6.77
2017-10-04T12:43:00.820Z,4.93
2017-10-04T12:45:28.317Z,7.63
2017-10-04T12:47:55.755Z,7.97
2017-10-04T12:50:23.164Z,4.60
2017-10-04T12:52:50.693Z,8.43
2017-10-04T12:55:18.094Z,9.47
2017-10-04T12:57:46.207Z,6.10
2017-10-04T13:00:14.031Z,8.40
2017-10-04T13:02:41.451Z,4.43
2017-10-04T13:05:08.908Z,4.43
2017-10-04T13:07:36.420Z,4.70
2017-10-04T13:10:03.841Z,6.20
2017-10-04T13:12:31.955Z,3.70
2017-10-04T13:14:59.411Z,4.30
2017-10-04T13:17:26.816Z,4.63
2017-10-04T13:19:54.237Z,5.83
2017-10-04T13:22:22.056Z,2.83
2017-10-04T13:24:49.469Z,3.47
2017-10-04T13:27:16.908Z,3.80
2017-10-04T13:29:44.405Z,3.87
2017-10-04T13:32:11.836Z,8.53
2017-10-04T13:34:39.248Z,4.33
2017-10-04T13:37:07.217Z,3.57
2017-10-04T13:39:34.636Z,6.90
2017-10-04T13:42:02.053Z,4.93
2017-10-04T13:44:29.495Z,7.20
2017-10-04T13:46:56.920Z,5.50
2017-10-04T13:49:24.332Z,3.23
2017-10-04T13:51:52.990Z,5.83
2017-10-04T13:54:20.421Z,5.25
2017-10-04T13:56:47.848Z,5.23
2017-10-04T13:59:15.286Z,4.20
2017-10-04T14:01:42.766Z,8.37
2017-10-04T14:04:10.274Z,3.40
2017-10-04T14:06:38.137Z,2.63
2017-10-04T14:09:05.560Z,2.70
2017-10-04T14:11:33.077Z,7.00
2017-10-04T14:14:00.911Z,3.97
2017-10-04T14:16:28.330Z,8.53
2017-10-04T14:18:56.226Z,2.20
2017-10-04T14:21:23.682Z,5.57
2017-10-04T14:23:51.306Z,3.93
2017-10-04T14:26:18.713Z,5.15
2017-10-04T14:28:46.257Z,3.17
2017-10-04T14:31:13.929Z,2.57
2017-10-04T14:33:41.337Z,3.50
2017-10-04T14:36:08.810Z,1.93
2017-10-04T14:38:36.228Z,2.03
2017-10-04T14:41:03.639Z,2.90
2017-10-04T14:43:31.100Z,4.13
2017-10-04T14:45:58.529Z,4.77
2017-10-04T14:48:25.933Z,3.53
2017-10-04T14:50:53.570Z,3.03
2017-10-04T14:53:20.984Z,2.63
2017-10-04T14:55:48.401Z,2.27
2017-10-04T14:58:16.261Z,3.30
2017-10-04T15:00:45.542Z,2.87
2017-10-04T15:03:13.608Z,3.45
2017-10-04T15:05:41.075Z,3.70
2017-10-04T15:08:08.495Z,10.30
2017-10-04T15:10:35.905Z,5.03
2017-10-04T15:13:03.418Z,6.73
2017-10-04T15:15:30.831Z,6.17
2017-10-04T15:17:58.248Z,8.03
2017-10-04T15:20:25.823Z,6.70
2017-10-04T15:22:53.890Z,2.70
2017-10-04T15:25:21.320Z,7.10
2017-10-04T15:27:48.730Z,8.40
2017-10-04T15:30:16.575Z,8.82
2017-10-04T15:32:44.011Z,6.10
2017-10-04T15:35:11.425Z,4.13
2017-10-04T15:37:39.256Z,13.80
2017-10-04T15:40:10.566Z,6.43
2017-10-04T15:42:37.983Z,10.73
2017-10-04T15:45:05.441Z,16.90
2017-10-04T15:47:32.936Z,12.43
2017-10-04T15:50:00.467Z,10.50
2017-10-04T15:52:31.795Z,9.60
2017-10-04T15:54:59.248Z,6.70
2017-10-04T15:57:26.664Z,12.03
2017-10-04T15:59:54.156Z,5.77
2017-10-04T16:02:21.686Z,9.65
2017-10-04T16:04:49.077Z,5.97
2017-10-04T16:07:16.938Z,6.20
2017-10-04T16:09:44.347Z,5.27
2017-10-04T16:12:11.824Z,12.83
2017-10-04T16:14:39.281Z,9.90
2017-10-04T16:17:06.714Z,10.63
2017-10-04T16:19:34.126Z,6.70
2017-10-04T16:22:01.729Z,8.23
2017-10-04T16:24:29.146Z,11.53
2017-10-04T16:26:56.567Z,10.93
2017-10-04T16:29:24.645Z,6.93
2017-10-04T16:31:52.066Z,5.60
2017-10-04T16:34:19.482Z,7.37
2017-10-04T16:36:46.935Z,3.20
2017-10-04T16:39:14.375Z,4.60
2017-10-04T16:41:41.944Z,4.33
2017-10-04T16:44:09.407Z,6.17
2017-10-04T16:46:36.832Z,3.20
2017-10-04T16:49:04.247Z,6.53
2017-10-04T16:51:31.756Z,11.13
2017-10-04T16:53:59.650Z,8.07
2017-10-04T16:56:27.076Z,13.00
2017-10-04T16:58:55.141Z,5.87
2017-10-04T17:01:22.569Z,8.70
2017-10-04T17:03:49.993Z,11.50
2017-10-04T17:06:17.872Z,9.95
2017-10-04T17:08:45.286Z,8.63
2017-10-04T17:11:12.702Z,9.97
2017-10-04T17:13:40.181Z,7.30
2017-10-04T17:16:07.604Z,13.38
2017-10-04T17:18:35.015Z,6.03
2017-10-04T17:21:02.678Z,8.13
2017-10-04T17:23:30.091Z,7.25
2017-10-04T17:25:57.515Z,8.33
2017-10-04T17:28:25.452Z,5.40
2017-10-04T17:30:52.858Z,5.27
2017-10-04T17:33:20.315Z,11.93
2017-10-04T17:35:47.918Z,8.77
2017-10-04T17:38:15.337Z,8.77
2017-10-04T17:40:42.832Z,6.00
2017-10-04T17:43:10.918Z,7.57
2017-10-04T17:45:38.335Z,9.37
2017-10-04T17:48:05.852Z,9.93
2017-10-04T17:50:33.322Z,6.00
2017-10-04T17:53:00.734Z,5.60
2017-10-04T17:55:28.155Z,7.73
2017-10-04T17:57:56.017Z,8.50
2017-10-04T18:00:23.460Z,11.10
2017-10-04T18:02:50.874Z,9.57
2017-10-04T18:05:18.314Z,7.83
2017-10-04T18:07:45.726Z,9.40
2017-10-04T18:10:13.135Z,7.05
2017-10-04T18:12:40.971Z,5.80
2017-10-04T18:15:08.383Z,4.97
2017-10-04T18:17:35.805Z,5.70
2017-10-04T18:20:03.552Z,3.83
2017-10-04T18:22:30.969Z,7.50
2017-10-04T18:24:58.386Z,7.70
2017-10-04T18:27:25.847Z,3.40
2017-10-04T18:29:53.396Z,5.37
2017-10-04T18:32:20.822Z,9.45
2017-10-04T18:34:48.272Z,7.20
2017-10-04T18:37:15.686Z,3.28
2017-10-04T18:39:43.104Z,9.30
2017-10-04T18:42:10.899Z,7.87
2017-10-04T18:44:38.329Z,6.10
2017-10-04T18:47:05.761Z,10.53
2017-10-04T18:49:33.238Z,11.97
2017-10-04T18:52:00.712Z,9.33
2017-10-04T18:54:28.164Z,8.20
2017-10-04T18:56:55.734Z,5.53
2017-10-04T18:59:23.223Z,10.83
2017-10-04T19:01:50.650Z,12.57
2017-10-04T19:04:18.140Z,6.23
2017-10-04T19:06:45.662Z,5.07
2017-10-04T19:09:13.081Z,10.30
2017-10-04T19:11:40.515Z,4.73
2017-10-04T19:14:08.029Z,4.87
2017-10-04T19:16:35.443Z,4.40
2017-10-04T19:19:02.983Z,4.30
2017-10-04T19:21:30.394Z,16.90
2017-10-04T19:23:57.815Z,5.10
2017-10-04T19:26:25.261Z,7.23
2017-10-04T19:28:52.710Z,10.30
2017-10-04T19:31:20.115Z,4.80
2017-10-04T19:33:47.583Z,6.40
2017-10-04T19:36:14.991Z,4.25
2017-10-04T19:38:42.411Z,5.47
2017-10-04T19:41:09.871Z,4.83
2017-10-04T19:43:37.296Z,5.33
2017-10-04T19:46:05.311Z,4.28
2017-10-04T19:48:32.771Z,5.43
2017-10-04T19:51:00.210Z,4.33
2017-10-04T19:53:27.634Z,3.87
2017-10-04T19:55:55.405Z,3.53
2017-10-04T19:58:22.814Z,7.85
2017-10-04T20:00:50.236Z,8.00
2017-10-04T20:03:17.720Z,3.10
2017-10-04T20:05:45.137Z,3.97
2017-10-04T20:08:12.568Z,7.13
2017-10-04T20:10:40.435Z,2.33
2017-10-04T20:13:07.854Z,2.73
2017-10-04T20:15:35.283Z,5.07
2017-10-04T20:18:02.740Z,4.27
2017-10-04T20:20:30.174Z,2.80
2017-10-04T20:22:57.605Z,5.03
2017-10-04T20:25:25.077Z,2.30
2017-10-04T20:27:52.488Z,2.73
2017-10-04T20:30:19.894Z,2.20
2017-10-04T20:32:47.377Z,2.03
2017-10-04T20:35:14.796Z,3.87
2017-10-04T20:37:42.259Z,2.13
2017-10-04T20:40:10.746Z,7.30
2017-10-04T20:42:38.166Z,4.05
2017-10-04T20:45:05.596Z,2.60
2017-10-04T20:47:33.055Z,2.30
2017-10-04T20:50:00.476Z,6.93
2017-10-04T20:52:27.892Z,2.13
2017-10-04T20:54:55.356Z,8.73
2017-10-04T20:57:22.768Z,3.83
2017-10-04T20:59:50.222Z,3.67
2017-10-04T21:02:17.681Z,5.35
2017-10-04T21:04:45.095Z,3.00
2017-10-04T21:07:12.514Z,3.00
2017-10-04T21:09:39.989Z,2.90
2017-10-04T21:12:07.399Z,4.20
2017-10-04T21:14:34.815Z,2.13
2017-10-04T21:17:02.598Z,3.73
2017-10-04T21:19:30.010Z,3.40
2017-10-04T21:21:57.438Z,3.37
2017-10-04T21:24:24.988Z,4.50
2017-10-04T21:26:52.395Z,1.30
2017-10-04T21:29:19.818Z,1.83
2017-10-04T21:31:47.414Z,4.57
2017-10-04T21:34:14.829Z,2.57
2017-10-04T21:36:42.828Z,1.50
2017-10-04T21:39:10.436Z,2.33
2017-10-04T21:41:37.850Z,1.57
2017-10-04T21:44:05.264Z,3.30
2017-10-04T21:46:33.654Z,1.40
2017-10-04T21:49:01.076Z,4.07
2017-10-04T21:51:28.488Z,3.33
2017-10-04T21:53:55.964Z,1.42
2017-10-04T21:56:23.363Z,3.53
2017-10-04T21:58:50.778Z,2.87
2017-10-04T22:01:18.262Z,2.13
2017-10-04T22:03:45.819Z,2.23
2017-10-04T22:06:13.227Z,1.60
2017-10-04T22:08:41.067Z,2.27
2017-10-04T22:11:08.500Z,2.53
2017-10-04T22:13:35.911Z,1.27
2017-10-04T22:16:03.920Z,1.23
2017-10-04T22:18:31.341Z,1.40
2017-10-04T22:20:58.755Z,1.90
2017-10-04T22:23:26.215Z,1.13
2017-10-04T22:25:53.632Z,2.40
2017-10-04T22:28:21.062Z,1.93
2017-10-04T22:30:48.870Z,1.53
2017-10-04T22:33:16.286Z,1.90
2017-10-04T22:35:43.697Z,2.13
2017-10-04T22:38:11.549Z,2.80
2017-10-04T22:40:38.958Z,1.97
2017-10-04T22:43:06.370Z,2.80
2017-10-04T22:45:33.821Z,3.00
2017-10-04T22:48:01.306Z,1.17
2017-10-04T22:50:28.706Z,1.40
2017-10-04T22:52:56.159Z,1.90
2017-10-04T22:55:23.562Z,2.30
2017-10-04T22:57:50.979Z,5.87
2017-10-04T23:00:19.356Z,1.97
2017-10-04T23:02:46.916Z,1.30
2017-10-04T23:05:14.387Z,1.55
2017-10-04T23:07:42.243Z,1.10
2017-10-04T23:10:09.669Z,1.20
2017-10-04T23:12:37.091Z,1.63
2017-10-04T23:15:04.560Z,2.23
2017-10-04T23:17:31.982Z,1.37
2017-10-04T23:19:59.422Z,1.10
2017-10-04T23:22:27.082Z,0.93
2017-10-04T23:24:54.500Z,3.13
2017-10-04T23:27:21.927Z,2.23
2017-10-04T23:29:49.397Z,1.33
2017-10-04T23:32:16.806Z,1.20
2017-10-04T23:34:44.239Z,1.20
2017-10-04T23:37:11.675Z,1.40
2017-10-04T23:39:39.127Z,1.37
2017-10-04T23:42:06.535Z,1.50
2017-10-04T23:44:33.983Z,1.30
2017-10-04T23:47:01.391Z,2.27
2017-10-04T23:49:28.803Z,1.00
2017-10-04T23:51:56.259Z,1.53
2017-10-04T23:54:23.696Z,1.93
2017-10-04T23:56:51.115Z,1.23
2017-10-04T23:59:18.882Z,1.50
